Terminal Aerodrome Forecast
Issued by NWS Melbourne, FL

Home | Current Version | Previous Version | Text Only | Print | Product List | Glossary On
Versions: 1 2 3 4 5 6 7 8 9 10 11 12 13 14 15 16
000
FTUS42 KMLB 170520
TAFDAB
TAF
KDAB 170520Z 1706/1806 21003KT P6SM FEW250
     FM171400 24004KT P6SM FEW030 SCT250
     FM171800 10008KT P6SM VCTS SCT030CB BKN100
     FM172200 16005KT P6SM SCT030 BKN120
     FM180000 20004KT P6SM FEW035 SCT150 BKN250=

USA.gov is the U.S. government's official web portal to all federal, state and local government web resources and services.